sensor_id;sensor_type;location;lat;lon;timestamp;P1;durP1;ratioP1;P2;durP2;ratioP2
20621;SDS011;10470;42.670;23.354;2023-08-31T00:00:24;3.67;;;1.97;;
20621;SDS011;10470;42.670;23.354;2023-08-31T00:02:53;4.43;;;1.97;;
20621;SDS011;10470;42.670;23.354;2023-08-31T00:05:22;5.73;;;2.10;;
20621;SDS011;10470;42.670;23.354;2023-08-31T00:07:55;6.40;;;1.93;;
20621;SDS011;10470;42.670;23.354;2023-08-31T00:10:24;3.17;;;2.00;;
20621;SDS011;10470;42.670;23.354;2023-08-31T00:12:57;4.13;;;1.97;;
20621;SDS011;10470;42.670;23.354;2023-08-31T00:15:30;4.40;;;1.73;;
20621;SDS011;10470;42.670;23.354;2023-08-31T00:18:03;5.33;;;1.93;;
20621;SDS011;10470;42.670;23.354;2023-08-31T00:20:32;3.77;;;1.70;;
20621;SDS011;10470;42.670;23.354;2023-08-31T00:23:05;5.57;;;2.00;;
20621;SDS011;10470;42.670;23.354;2023-08-31T00:25:34;4.20;;;1.97;;
20621;SDS011;10470;42.670;23.354;2023-08-31T00:28:03;4.43;;;2.20;;
20621;SDS011;10470;42.670;23.354;2023-08-31T00:30:36;2.97;;;2.00;;
20621;SDS011;10470;42.670;23.354;2023-08-31T00:33:05;3.53;;;1.73;;
20621;SDS011;10470;42.670;23.354;2023-08-31T00:35:34;4.37;;;1.90;;
20621;SDS011;10470;42.670;23.354;2023-08-31T00:38:03;4.60;;;1.87;;
20621;SDS011;10470;42.670;23.354;2023-08-31T00:40:42;4.57;;;2.20;;
20621;SDS011;10470;42.670;23.354;2023-08-31T00:43:17;3.70;;;2.30;;
20621;SDS011;10470;42.670;23.354;2023-08-31T00:45:46;3.13;;;1.97;;
20621;SDS011;10470;42.670;23.354;2023-08-31T00:48:18;5.40;;;2.07;;
20621;SDS011;10470;42.670;23.354;2023-08-31T00:50:48;3.90;;;1.90;;
20621;SDS011;10470;42.670;23.354;2023-08-31T00:53:17;6.57;;;2.20;;
20621;SDS011;10470;42.670;23.354;2023-08-31T00:55:45;3.53;;;1.80;;
20621;SDS011;10470;42.670;23.354;2023-08-31T00:58:18;4.43;;;2.20;;
20621;SDS011;10470;42.670;23.354;2023-08-31T01:09:34;3.00;;;1.73;;
20621;SDS011;10470;42.670;23.354;2023-08-31T01:12:18;5.40;;;1.80;;
20621;SDS011;10470;42.670;23.354;2023-08-31T01:15:13;4.20;;;1.67;;
20621;SDS011;10470;42.670;23.354;2023-08-31T01:17:47;3.57;;;1.90;;
20621;SDS011;10470;42.670;23.354;2023-08-31T01:20:26;3.47;;;1.90;;
20621;SDS011;10470;42.670;23.354;2023-08-31T01:23:06;4.13;;;1.80;;
20621;SDS011;10470;42.670;23.354;2023-08-31T01:25:41;5.93;;;1.93;;
20621;SDS011;10470;42.670;23.354;2023-08-31T01:28:15;3.40;;;1.87;;
20621;SDS011;10470;42.670;23.354;2023-08-31T01:30:47;4.83;;;1.80;;
20621;SDS011;10470;42.670;23.354;2023-08-31T01:33:16;4.53;;;2.00;;
20621;SDS011;10470;42.670;23.354;2023-08-31T01:35:46;5.60;;;2.50;;
20621;SDS011;10470;42.670;23.354;2023-08-31T01:38:25;5.80;;;2.70;;
20621;SDS011;10470;42.670;23.354;2023-08-31T01:41:01;5.20;;;2.40;;
20621;SDS011;10470;42.670;23.354;2023-08-31T01:43:38;5.37;;;2.73;;
20621;SDS011;10470;42.670;23.354;2023-08-31T01:46:10;4.40;;;2.60;;
20621;SDS011;10470;42.670;23.354;2023-08-31T01:48:39;5.03;;;2.70;;
20621;SDS011;10470;42.670;23.354;2023-08-31T01:51:13;5.10;;;2.60;;
20621;SDS011;10470;42.670;23.354;2023-08-31T01:53:46;5.07;;;2.77;;
20621;SDS011;10470;42.670;23.354;2023-08-31T01:56:15;4.27;;;2.80;;
20621;SDS011;10470;42.670;23.354;2023-08-31T01:58:45;6.20;;;2.70;;
20621;SDS011;10470;42.670;23.354;2023-08-31T02:01:14;4.10;;;2.77;;
20621;SDS011;10470;42.670;23.354;2023-08-31T02:03:43;5.03;;;2.43;;
20621;SDS011;10470;42.670;23.354;2023-08-31T02:06:13;4.00;;;2.63;;
20621;SDS011;10470;42.670;23.354;2023-08-31T02:08:42;7.77;;;3.00;;
20621;SDS011;10470;42.670;23.354;2023-08-31T02:11:15;5.17;;;2.60;;
20621;SDS011;10470;42.670;23.354;2023-08-31T02:13:44;4.17;;;2.93;;
20621;SDS011;10470;42.670;23.354;2023-08-31T02:16:13;3.13;;;2.60;;
20621;SDS011;10470;42.670;23.354;2023-08-31T02:18:43;5.83;;;2.90;;
20621;SDS011;10470;42.670;23.354;2023-08-31T02:21:12;4.93;;;2.50;;
20621;SDS011;10470;42.670;23.354;2023-08-31T02:23:42;5.50;;;2.53;;
20621;SDS011;10470;42.670;23.354;2023-08-31T02:26:12;5.37;;;2.27;;
20621;SDS011;10470;42.670;23.354;2023-08-31T02:28:41;5.93;;;2.40;;
20621;SDS011;10470;42.670;23.354;2023-08-31T02:31:10;5.10;;;2.63;;
20621;SDS011;10470;42.670;23.354;2023-08-31T02:33:45;3.40;;;2.20;;
20621;SDS011;10470;42.670;23.354;2023-08-31T02:36:17;4.73;;;2.17;;
20621;SDS011;10470;42.670;23.354;2023-08-31T02:38:46;4.33;;;2.40;;
20621;SDS011;10470;42.670;23.354;2023-08-31T02:41:17;3.87;;;2.10;;
20621;SDS011;10470;42.670;23.354;2023-08-31T02:43:49;6.03;;;2.17;;
20621;SDS011;10470;42.670;23.354;2023-08-31T02:46:21;5.00;;;2.00;;
20621;SDS011;10470;42.670;23.354;2023-08-31T02:48:50;3.43;;;2.10;;
20621;SDS011;10470;42.670;23.354;2023-08-31T02:51:20;5.33;;;2.10;;
20621;SDS011;10470;42.670;23.354;2023-08-31T02:53:49;8.17;;;2.20;;
20621;SDS011;10470;42.670;23.354;2023-08-31T02:56:19;5.47;;;2.70;;
20621;SDS011;10470;42.670;23.354;2023-08-31T02:58:48;4.60;;;2.00;;
20621;SDS011;10470;42.670;23.354;2023-08-31T03:01:18;4.93;;;2.47;;
20621;SDS011;10470;42.670;23.354;2023-08-31T03:03:48;5.23;;;2.43;;
20621;SDS011;10470;42.670;23.354;2023-08-31T03:06:21;3.80;;;2.63;;
20621;SDS011;10470;42.670;23.354;2023-08-31T03:08:55;4.73;;;3.07;;
20621;SDS011;10470;42.670;23.354;2023-08-31T03:11:24;4.60;;;2.40;;
20621;SDS011;10470;42.670;23.354;2023-08-31T03:13:53;6.20;;;2.47;;
20621;SDS011;10470;42.670;23.354;2023-08-31T03:16:23;4.73;;;2.33;;
20621;SDS011;10470;42.670;23.354;2023-08-31T03:18:52;4.63;;;2.50;;
20621;SDS011;10470;42.670;23.354;2023-08-31T03:21:21;5.00;;;2.23;;
20621;SDS011;10470;42.670;23.354;2023-08-31T03:23:51;4.57;;;2.83;;
20621;SDS011;10470;42.670;23.354;2023-08-31T03:26:20;7.57;;;2.40;;
20621;SDS011;10470;42.670;23.354;2023-08-31T03:28:51;5.87;;;3.00;;
20621;SDS011;10470;42.670;23.354;2023-08-31T03:31:20;3.33;;;2.40;;
20621;SDS011;10470;42.670;23.354;2023-08-31T03:33:50;4.93;;;2.60;;
20621;SDS011;10470;42.670;23.354;2023-08-31T03:36:19;9.33;;;4.20;;
20621;SDS011;10470;42.670;23.354;2023-08-31T03:38:49;6.83;;;3.23;;
20621;SDS011;10470;42.670;23.354;2023-08-31T03:41:18;9.67;;;3.30;;
20621;SDS011;10470;42.670;23.354;2023-08-31T03:43:48;10.70;;;3.80;;
20621;SDS011;10470;42.670;23.354;2023-08-31T03:46:16;10.63;;;3.90;;
20621;SDS011;10470;42.670;23.354;2023-08-31T03:48:46;7.90;;;3.80;;
20621;SDS011;10470;42.670;23.354;2023-08-31T03:51:16;7.37;;;3.53;;
20621;SDS011;10470;42.670;23.354;2023-08-31T03:53:46;9.70;;;4.47;;
20621;SDS011;10470;42.670;23.354;2023-08-31T03:56:16;9.27;;;3.50;;
20621;SDS011;10470;42.670;23.354;2023-08-31T03:58:46;8.87;;;3.53;;
20621;SDS011;10470;42.670;23.354;2023-08-31T04:01:16;6.03;;;3.30;;
20621;SDS011;10470;42.670;23.354;2023-08-31T04:03:50;8.53;;;3.60;;
20621;SDS011;10470;42.670;23.354;2023-08-31T04:06:18;6.23;;;3.23;;
20621;SDS011;10470;42.670;23.354;2023-08-31T04:08:48;8.10;;;3.33;;
20621;SDS011;10470;42.670;23.354;2023-08-31T04:11:18;8.53;;;3.10;;
20621;SDS011;10470;42.670;23.354;2023-08-31T04:13:49;8.17;;;4.47;;
20621;SDS011;10470;42.670;23.354;2023-08-31T04:16:19;8.03;;;4.67;;
20621;SDS011;10470;42.670;23.354;2023-08-31T04:18:49;8.17;;;3.43;;
20621;SDS011;10470;42.670;23.354;2023-08-31T04:21:23;9.37;;;3.43;;
20621;SDS011;10470;42.670;23.354;2023-08-31T04:23:54;8.53;;;3.87;;
20621;SDS011;10470;42.670;23.354;2023-08-31T04:26:27;8.47;;;5.00;;
20621;SDS011;10470;42.670;23.354;2023-08-31T04:28:56;10.07;;;6.30;;
20621;SDS011;10470;42.670;23.354;2023-08-31T04:31:26;7.87;;;4.13;;
20621;SDS011;10470;42.670;23.354;2023-08-31T04:33:56;8.83;;;3.70;;
20621;SDS011;10470;42.670;23.354;2023-08-31T04:36:26;4.70;;;3.40;;
20621;SDS011;10470;42.670;23.354;2023-08-31T04:38:56;6.97;;;3.27;;
20621;SDS011;10470;42.670;23.354;2023-08-31T04:41:26;8.50;;;3.50;;
20621;SDS011;10470;42.670;23.354;2023-08-31T04:43:56;7.50;;;3.30;;
20621;SDS011;10470;42.670;23.354;2023-08-31T04:46:26;9.83;;;3.70;;
20621;SDS011;10470;42.670;23.354;2023-08-31T04:48:55;7.63;;;4.27;;
20621;SDS011;10470;42.670;23.354;2023-08-31T04:51:29;7.50;;;3.20;;
20621;SDS011;10470;42.670;23.354;2023-08-31T04:54:03;6.40;;;3.27;;
20621;SDS011;10470;42.670;23.354;2023-08-31T04:56:33;7.20;;;3.27;;
20621;SDS011;10470;42.670;23.354;2023-08-31T04:59:03;8.17;;;3.00;;
20621;SDS011;10470;42.670;23.354;2023-08-31T05:01:34;6.33;;;3.47;;
20621;SDS011;10470;42.670;23.354;2023-08-31T05:04:04;7.67;;;3.77;;
20621;SDS011;10470;42.670;23.354;2023-08-31T05:06:34;7.83;;;3.30;;
20621;SDS011;10470;42.670;23.354;2023-08-31T05:09:04;7.40;;;3.20;;
20621;SDS011;10470;42.670;23.354;2023-08-31T05:11:34;9.10;;;3.57;;
20621;SDS011;10470;42.670;23.354;2023-08-31T05:14:04;6.43;;;3.50;;
20621;SDS011;10470;42.670;23.354;2023-08-31T05:16:34;8.60;;;3.70;;
20621;SDS011;10470;42.670;23.354;2023-08-31T05:19:04;6.37;;;3.37;;
20621;SDS011;10470;42.670;23.354;2023-08-31T05:21:34;8.30;;;3.50;;
20621;SDS011;10470;42.670;23.354;2023-08-31T05:24:05;11.37;;;3.97;;
20621;SDS011;10470;42.670;23.354;2023-08-31T05:26:35;9.37;;;3.83;;
20621;SDS011;10470;42.670;23.354;2023-08-31T05:29:04;7.33;;;3.67;;
20621;SDS011;10470;42.670;23.354;2023-08-31T05:31:35;5.57;;;2.93;;
20621;SDS011;10470;42.670;23.354;2023-08-31T05:34:05;8.70;;;3.37;;
20621;SDS011;10470;42.670;23.354;2023-08-31T05:36:36;7.33;;;3.33;;
20621;SDS011;10470;42.670;23.354;2023-08-31T05:39:05;6.37;;;3.23;;
20621;SDS011;10470;42.670;23.354;2023-08-31T05:41:35;4.80;;;3.27;;
20621;SDS011;10470;42.670;23.354;2023-08-31T05:44:05;7.33;;;2.93;;
20621;SDS011;10470;42.670;23.354;2023-08-31T05:46:34;6.27;;;3.23;;
20621;SDS011;10470;42.670;23.354;2023-08-31T05:49:04;7.73;;;2.73;;
20621;SDS011;10470;42.670;23.354;2023-08-31T05:51:34;4.53;;;2.37;;
20621;SDS011;10470;42.670;23.354;2023-08-31T05:54:05;5.60;;;2.80;;
20621;SDS011;10470;42.670;23.354;2023-08-31T05:56:39;9.23;;;2.57;;
20621;SDS011;10470;42.670;23.354;2023-08-31T05:59:09;8.27;;;3.30;;
20621;SDS011;10470;42.670;23.354;2023-08-31T06:01:39;9.60;;;2.93;;
20621;SDS011;10470;42.670;23.354;2023-08-31T06:04:09;7.17;;;2.60;;
20621;SDS011;10470;42.670;23.354;2023-08-31T06:06:39;5.70;;;2.30;;
20621;SDS011;10470;42.670;23.354;2023-08-31T06:09:09;5.83;;;2.50;;
20621;SDS011;10470;42.670;23.354;2023-08-31T06:11:39;6.60;;;3.00;;
20621;SDS011;10470;42.670;23.354;2023-08-31T06:14:09;6.23;;;2.90;;
20621;SDS011;10470;42.670;23.354;2023-08-31T06:16:39;9.23;;;3.57;;
20621;SDS011;10470;42.670;23.354;2023-08-31T06:19:09;10.97;;;4.43;;
20621;SDS011;10470;42.670;23.354;2023-08-31T06:21:40;10.17;;;4.20;;
20621;SDS011;10470;42.670;23.354;2023-08-31T06:24:10;11.13;;;5.03;;
20621;SDS011;10470;42.670;23.354;2023-08-31T06:26:44;8.73;;;4.20;;
20621;SDS011;10470;42.670;23.354;2023-08-31T06:29:14;13.30;;;3.93;;
20621;SDS011;10470;42.670;23.354;2023-08-31T06:31:44;8.33;;;4.03;;
20621;SDS011;10470;42.670;23.354;2023-08-31T06:34:14;11.27;;;4.33;;
20621;SDS011;10470;42.670;23.354;2023-08-31T06:36:44;10.77;;;4.17;;
20621;SDS011;10470;42.670;23.354;2023-08-31T06:39:15;6.20;;;3.40;;
20621;SDS011;10470;42.670;23.354;2023-08-31T06:41:45;9.00;;;3.60;;
20621;SDS011;10470;42.670;23.354;2023-08-31T06:44:15;7.63;;;3.13;;
20621;SDS011;10470;42.670;23.354;2023-08-31T06:46:45;12.57;;;3.13;;
20621;SDS011;10470;42.670;23.354;2023-08-31T06:49:15;11.07;;;3.37;;
20621;SDS011;10470;42.670;23.354;2023-08-31T06:51:45;8.47;;;4.00;;
20621;SDS011;10470;42.670;23.354;2023-08-31T06:54:15;7.87;;;3.70;;
20621;SDS011;10470;42.670;23.354;2023-08-31T06:56:46;7.07;;;3.30;;
20621;SDS011;10470;42.670;23.354;2023-08-31T06:59:16;5.77;;;3.00;;
20621;SDS011;10470;42.670;23.354;2023-08-31T07:01:47;10.10;;;2.90;;
20621;SDS011;10470;42.670;23.354;2023-08-31T07:04:17;7.97;;;3.00;;
20621;SDS011;10470;42.670;23.354;2023-08-31T07:06:48;10.63;;;3.87;;
20621;SDS011;10470;42.670;23.354;2023-08-31T07:09:17;8.00;;;3.37;;
20621;SDS011;10470;42.670;23.354;2023-08-31T07:11:47;7.23;;;3.17;;
20621;SDS011;10470;42.670;23.354;2023-08-31T07:14:18;7.30;;;3.10;;
20621;SDS011;10470;42.670;23.354;2023-08-31T07:16:49;8.80;;;3.20;;
20621;SDS011;10470;42.670;23.354;2023-08-31T07:19:19;7.73;;;2.80;;
20621;SDS011;10470;42.670;23.354;2023-08-31T07:21:50;10.37;;;3.00;;
20621;SDS011;10470;42.670;23.354;2023-08-31T07:24:22;6.53;;;2.87;;
20621;SDS011;10470;42.670;23.354;2023-08-31T07:26:55;10.73;;;3.37;;
20621;SDS011;10470;42.670;23.354;2023-08-31T07:29:26;5.07;;;2.17;;
20621;SDS011;10470;42.670;23.354;2023-08-31T07:31:56;5.57;;;2.73;;
20621;SDS011;10470;42.670;23.354;2023-08-31T07:34:27;8.00;;;2.57;;
20621;SDS011;10470;42.670;23.354;2023-08-31T07:36:58;8.30;;;3.00;;
20621;SDS011;10470;42.670;23.354;2023-08-31T07:39:32;7.93;;;2.80;;
20621;SDS011;10470;42.670;23.354;2023-08-31T07:42:02;9.73;;;2.73;;
20621;SDS011;10470;42.670;23.354;2023-08-31T07:44:33;6.03;;;2.50;;
20621;SDS011;10470;42.670;23.354;2023-08-31T07:47:04;6.80;;;2.50;;
20621;SDS011;10470;42.670;23.354;2023-08-31T07:49:34;7.30;;;2.87;;
20621;SDS011;10470;42.670;23.354;2023-08-31T07:52:05;8.37;;;2.70;;
20621;SDS011;10470;42.670;23.354;2023-08-31T07:54:34;5.73;;;2.50;;
20621;SDS011;10470;42.670;23.354;2023-08-31T07:57:05;5.47;;;2.37;;
20621;SDS011;10470;42.670;23.354;2023-08-31T07:59:36;4.67;;;2.60;;
20621;SDS011;10470;42.670;23.354;2023-08-31T08:02:11;7.67;;;2.80;;
20621;SDS011;10470;42.670;23.354;2023-08-31T08:04:41;7.50;;;2.43;;
20621;SDS011;10470;42.670;23.354;2023-08-31T08:07:12;9.43;;;2.77;;
20621;SDS011;10470;42.670;23.354;2023-08-31T08:09:42;6.27;;;2.57;;
20621;SDS011;10470;42.670;23.354;2023-08-31T08:12:13;4.80;;;2.20;;
20621;SDS011;10470;42.670;23.354;2023-08-31T08:14:44;6.10;;;2.10;;
20621;SDS011;10470;42.670;23.354;2023-08-31T08:17:14;5.23;;;2.20;;
20621;SDS011;10470;42.670;23.354;2023-08-31T08:19:45;3.83;;;1.87;;
20621;SDS011;10470;42.670;23.354;2023-08-31T08:22:15;5.37;;;2.30;;
20621;SDS011;10470;42.670;23.354;2023-08-31T08:24:45;5.07;;;2.10;;
20621;SDS011;10470;42.670;23.354;2023-08-31T08:27:15;5.93;;;2.10;;
20621;SDS011;10470;42.670;23.354;2023-08-31T08:29:46;4.80;;;2.10;;
20621;SDS011;10470;42.670;23.354;2023-08-31T08:32:17;5.07;;;2.63;;
20621;SDS011;10470;42.670;23.354;2023-08-31T08:34:47;12.80;;;3.90;;
20621;SDS011;10470;42.670;23.354;2023-08-31T08:37:18;4.67;;;3.20;;
20621;SDS011;10470;42.670;23.354;2023-08-31T08:39:48;5.83;;;3.00;;
20621;SDS011;10470;42.670;23.354;2023-08-31T08:42:23;7.60;;;3.50;;
20621;SDS011;10470;42.670;23.354;2023-08-31T08:44:57;6.50;;;3.10;;
20621;SDS011;10470;42.670;23.354;2023-08-31T08:47:27;8.60;;;3.43;;
20621;SDS011;10470;42.670;23.354;2023-08-31T08:50:02;6.67;;;3.73;;
20621;SDS011;10470;42.670;23.354;2023-08-31T08:52:31;5.60;;;3.50;;
20621;SDS011;10470;42.670;23.354;2023-08-31T08:55:02;4.80;;;3.67;;
20621;SDS011;10470;42.670;23.354;2023-08-31T08:57:33;5.87;;;4.03;;
20621;SDS011;10470;42.670;23.354;2023-08-31T09:00:04;6.33;;;3.87;;
20621;SDS011;10470;42.670;23.354;2023-08-31T09:02:34;6.63;;;4.23;;
20621;SDS011;10470;42.670;23.354;2023-08-31T09:05:07;6.30;;;4.43;;
20621;SDS011;10470;42.670;23.354;2023-08-31T09:07:38;5.77;;;4.30;;
20621;SDS011;10470;42.670;23.354;2023-08-31T09:11:02;6.20;;;4.27;;
20621;SDS011;10470;42.670;23.354;2023-08-31T09:13:29;5.70;;;3.87;;
20621;SDS011;10470;42.670;23.354;2023-08-31T09:15:58;5.03;;;3.47;;
20621;SDS011;10470;42.670;23.354;2023-08-31T09:18:30;5.70;;;3.70;;
20621;SDS011;10470;42.670;23.354;2023-08-31T09:21:03;4.90;;;3.97;;
20621;SDS011;10470;42.670;23.354;2023-08-31T09:23:34;4.93;;;3.50;;
20621;SDS011;10470;42.670;23.354;2023-08-31T09:26:05;4.60;;;3.57;;
20621;SDS011;10470;42.670;23.354;2023-08-31T09:28:36;5.70;;;3.97;;
20621;SDS011;10470;42.670;23.354;2023-08-31T09:31:10;6.13;;;3.73;;
20621;SDS011;10470;42.670;23.354;2023-08-31T09:33:49;5.97;;;3.50;;
20621;SDS011;10470;42.670;23.354;2023-08-31T09:36:20;6.10;;;3.60;;
20621;SDS011;10470;42.670;23.354;2023-08-31T09:38:56;5.40;;;3.67;;
20621;SDS011;10470;42.670;23.354;2023-08-31T09:41:28;4.43;;;3.70;;
20621;SDS011;10470;42.670;23.354;2023-08-31T09:44:15;4.37;;;3.73;;
20621;SDS011;10470;42.670;23.354;2023-08-31T09:46:46;5.60;;;4.10;;
20621;SDS011;10470;42.670;23.354;2023-08-31T09:49:16;7.57;;;3.97;;
20621;SDS011;10470;42.670;23.354;2023-08-31T09:51:51;7.03;;;3.83;;
20621;SDS011;10470;42.670;23.354;2023-08-31T09:54:21;4.53;;;3.67;;
20621;SDS011;10470;42.670;23.354;2023-08-31T09:56:55;5.50;;;3.30;;
20621;SDS011;10470;42.670;23.354;2023-08-31T09:59:30;4.50;;;3.40;;
20621;SDS011;10470;42.670;23.354;2023-08-31T10:02:04;4.87;;;3.60;;
20621;SDS011;10470;42.670;23.354;2023-08-31T10:04:35;6.57;;;4.20;;
20621;SDS011;10470;42.670;23.354;2023-08-31T10:07:09;4.73;;;3.13;;
20621;SDS011;10470;42.670;23.354;2023-08-31T10:09:40;6.27;;;3.97;;
20621;SDS011;10470;42.670;23.354;2023-08-31T10:12:10;5.60;;;3.80;;
20621;SDS011;10470;42.670;23.354;2023-08-31T10:14:41;5.97;;;3.80;;
20621;SDS011;10470;42.670;23.354;2023-08-31T10:17:11;4.67;;;3.80;;
20621;SDS011;10470;42.670;23.354;2023-08-31T10:19:41;6.30;;;4.33;;
20621;SDS011;10470;42.670;23.354;2023-08-31T10:22:12;4.20;;;3.60;;
20621;SDS011;10470;42.670;23.354;2023-08-31T10:25:02;5.00;;;4.10;;
20621;SDS011;10470;42.670;23.354;2023-08-31T10:27:41;5.83;;;4.33;;
20621;SDS011;10470;42.670;23.354;2023-08-31T10:35:52;6.63;;;4.40;;
20621;SDS011;10470;42.670;23.354;2023-08-31T10:38:27;4.83;;;3.77;;
20621;SDS011;10470;42.670;23.354;2023-08-31T10:41:01;4.47;;;3.73;;
20621;SDS011;10470;42.670;23.354;2023-08-31T10:43:55;4.83;;;3.97;;
20621;SDS011;10470;42.670;23.354;2023-08-31T10:46:32;5.60;;;3.97;;
20621;SDS011;10470;42.670;23.354;2023-08-31T10:51:40;5.87;;;4.20;;
20621;SDS011;10470;42.670;23.354;2023-08-31T10:56:52;6.27;;;3.90;;
20621;SDS011;10470;42.670;23.354;2023-08-31T10:59:41;5.93;;;4.03;;
20621;SDS011;10470;42.670;23.354;2023-08-31T11:02:26;6.73;;;3.77;;
20621;SDS011;10470;42.670;23.354;2023-08-31T11:07:48;6.37;;;3.77;;
20621;SDS011;10470;42.670;23.354;2023-08-31T11:10:20;4.47;;;3.50;;
20621;SDS011;10470;42.670;23.354;2023-08-31T11:12:55;3.40;;;2.97;;
20621;SDS011;10470;42.670;23.354;2023-08-31T11:15:26;6.33;;;3.93;;
20621;SDS011;10470;42.670;23.354;2023-08-31T11:18:00;5.00;;;3.80;;
20621;SDS011;10470;42.670;23.354;2023-08-31T11:20:31;4.17;;;3.23;;
20621;SDS011;10470;42.670;23.354;2023-08-31T11:23:01;5.33;;;3.67;;
20621;SDS011;10470;42.670;23.354;2023-08-31T11:25:32;4.47;;;3.53;;
20621;SDS011;10470;42.670;23.354;2023-08-31T11:28:03;4.73;;;3.60;;
20621;SDS011;10470;42.670;23.354;2023-08-31T11:30:37;7.47;;;3.60;;
20621;SDS011;10470;42.670;23.354;2023-08-31T11:33:08;5.53;;;3.90;;
20621;SDS011;10470;42.670;23.354;2023-08-31T11:35:43;5.63;;;3.60;;
20621;SDS011;10470;42.670;23.354;2023-08-31T11:38:13;4.07;;;3.40;;
20621;SDS011;10470;42.670;23.354;2023-08-31T11:40:44;4.97;;;3.30;;
20621;SDS011;10470;42.670;23.354;2023-08-31T11:43:15;5.27;;;2.97;;
20621;SDS011;10470;42.670;23.354;2023-08-31T11:45:45;3.83;;;3.17;;
20621;SDS011;10470;42.670;23.354;2023-08-31T11:48:16;3.80;;;3.30;;
20621;SDS011;10470;42.670;23.354;2023-08-31T11:50:47;3.80;;;2.77;;
20621;SDS011;10470;42.670;23.354;2023-08-31T11:53:17;4.03;;;3.00;;
20621;SDS011;10470;42.670;23.354;2023-08-31T11:55:49;9.77;;;3.67;;
20621;SDS011;10470;42.670;23.354;2023-08-31T11:58:25;4.60;;;2.90;;
20621;SDS011;10470;42.670;23.354;2023-08-31T12:00:59;3.83;;;2.70;;
20621;SDS011;10470;42.670;23.354;2023-08-31T12:03:37;3.70;;;3.00;;
20621;SDS011;10470;42.670;23.354;2023-08-31T12:06:16;3.77;;;2.80;;
20621;SDS011;10470;42.670;23.354;2023-08-31T12:08:52;4.47;;;2.90;;
20621;SDS011;10470;42.670;23.354;2023-08-31T12:11:23;4.50;;;2.90;;
20621;SDS011;10470;42.670;23.354;2023-08-31T12:13:54;6.30;;;2.90;;
20621;SDS011;10470;42.670;23.354;2023-08-31T12:16:24;4.73;;;2.83;;
20621;SDS011;10470;42.670;23.354;2023-08-31T12:19:03;5.60;;;2.87;;
20621;SDS011;10470;42.670;23.354;2023-08-31T12:21:38;4.17;;;3.07;;
20621;SDS011;10470;42.670;23.354;2023-08-31T12:24:09;4.63;;;2.97;;
20621;SDS011;10470;42.670;23.354;2023-08-31T12:26:40;4.93;;;2.83;;
20621;SDS011;10470;42.670;23.354;2023-08-31T12:29:10;3.40;;;2.93;;
20621;SDS011;10470;42.670;23.354;2023-08-31T12:31:41;3.60;;;2.97;;
20621;SDS011;10470;42.670;23.354;2023-08-31T12:34:12;3.47;;;2.67;;
20621;SDS011;10470;42.670;23.354;2023-08-31T12:36:43;7.23;;;3.07;;
20621;SDS011;10470;42.670;23.354;2023-08-31T12:39:15;6.20;;;2.70;;
20621;SDS011;10470;42.670;23.354;2023-08-31T12:41:46;4.30;;;2.83;;
20621;SDS011;10470;42.670;23.354;2023-08-31T12:44:17;3.87;;;2.80;;
20621;SDS011;10470;42.670;23.354;2023-08-31T12:46:48;5.73;;;2.83;;
20621;SDS011;10470;42.670;23.354;2023-08-31T12:49:18;5.03;;;2.80;;
20621;SDS011;10470;42.670;23.354;2023-08-31T12:51:50;5.27;;;2.87;;
20621;SDS011;10470;42.670;23.354;2023-08-31T12:54:21;3.87;;;3.00;;
20621;SDS011;10470;42.670;23.354;2023-08-31T12:56:52;5.57;;;3.10;;
20621;SDS011;10470;42.670;23.354;2023-08-31T12:59:23;4.20;;;2.97;;
20621;SDS011;10470;42.670;23.354;2023-08-31T13:01:54;6.23;;;3.40;;
20621;SDS011;10470;42.670;23.354;2023-08-31T13:04:25;4.00;;;2.93;;
20621;SDS011;10470;42.670;23.354;2023-08-31T13:06:56;5.80;;;2.73;;
20621;SDS011;10470;42.670;23.354;2023-08-31T13:09:27;3.60;;;2.60;;
20621;SDS011;10470;42.670;23.354;2023-08-31T13:11:57;3.43;;;2.70;;
20621;SDS011;10470;42.670;23.354;2023-08-31T13:14:28;5.57;;;2.80;;
20621;SDS011;10470;42.670;23.354;2023-08-31T13:17:00;4.33;;;2.60;;
20621;SDS011;10470;42.670;23.354;2023-08-31T13:19:31;6.37;;;3.07;;
20621;SDS011;10470;42.670;23.354;2023-08-31T13:22:02;6.37;;;2.60;;
20621;SDS011;10470;42.670;23.354;2023-08-31T13:24:33;4.97;;;2.90;;
20621;SDS011;10470;42.670;23.354;2023-08-31T13:27:05;4.33;;;2.80;;
20621;SDS011;10470;42.670;23.354;2023-08-31T13:29:36;4.40;;;2.70;;
20621;SDS011;10470;42.670;23.354;2023-08-31T13:32:07;4.13;;;2.70;;
20621;SDS011;10470;42.670;23.354;2023-08-31T13:34:38;6.10;;;2.90;;
20621;SDS011;10470;42.670;23.354;2023-08-31T13:37:10;3.97;;;2.80;;
20621;SDS011;10470;42.670;23.354;2023-08-31T13:39:41;4.20;;;2.73;;
20621;SDS011;10470;42.670;23.354;2023-08-31T13:42:11;4.37;;;2.73;;
20621;SDS011;10470;42.670;23.354;2023-08-31T13:44:43;6.40;;;2.97;;
20621;SDS011;10470;42.670;23.354;2023-08-31T13:47:13;4.20;;;2.47;;
20621;SDS011;10470;42.670;23.354;2023-08-31T13:49:44;5.30;;;2.40;;
20621;SDS011;10470;42.670;23.354;2023-08-31T13:52:16;4.97;;;2.70;;
20621;SDS011;10470;42.670;23.354;2023-08-31T13:54:47;4.77;;;2.77;;
20621;SDS011;10470;42.670;23.354;2023-08-31T13:57:19;4.53;;;2.50;;
20621;SDS011;10470;42.670;23.354;2023-08-31T13:59:50;3.30;;;2.50;;
20621;SDS011;10470;42.670;23.354;2023-08-31T14:02:21;4.57;;;2.87;;
20621;SDS011;10470;42.670;23.354;2023-08-31T14:04:52;4.67;;;2.90;;
20621;SDS011;10470;42.670;23.354;2023-08-31T14:07:23;5.80;;;2.70;;
20621;SDS011;10470;42.670;23.354;2023-08-31T14:09:55;4.53;;;2.77;;
20621;SDS011;10470;42.670;23.354;2023-08-31T14:12:26;4.30;;;2.70;;
20621;SDS011;10470;42.670;23.354;2023-08-31T14:14:58;7.10;;;2.70;;
20621;SDS011;10470;42.670;23.354;2023-08-31T14:17:30;6.80;;;3.00;;
20621;SDS011;10470;42.670;23.354;2023-08-31T14:20:00;4.53;;;2.80;;
20621;SDS011;10470;42.670;23.354;2023-08-31T14:22:35;6.93;;;3.10;;
20621;SDS011;10470;42.670;23.354;2023-08-31T14:25:05;5.20;;;2.33;;
20621;SDS011;10470;42.670;23.354;2023-08-31T14:27:36;7.40;;;2.50;;
20621;SDS011;10470;42.670;23.354;2023-08-31T14:30:06;3.83;;;2.57;;
20621;SDS011;10470;42.670;23.354;2023-08-31T14:32:36;3.87;;;2.50;;
20621;SDS011;10470;42.670;23.354;2023-08-31T14:35:07;8.33;;;2.73;;
20621;SDS011;10470;42.670;23.354;2023-08-31T14:37:37;5.07;;;2.80;;
20621;SDS011;10470;42.670;23.354;2023-08-31T14:40:08;6.23;;;3.17;;
20621;SDS011;10470;42.670;23.354;2023-08-31T14:42:39;7.33;;;3.30;;
20621;SDS011;10470;42.670;23.354;2023-08-31T14:45:10;5.17;;;2.83;;
20621;SDS011;10470;42.670;23.354;2023-08-31T14:47:41;9.77;;;3.30;;
20621;SDS011;10470;42.670;23.354;2023-08-31T14:50:12;7.43;;;3.07;;
20621;SDS011;10470;42.670;23.354;2023-08-31T14:52:43;5.00;;;3.40;;
20621;SDS011;10470;42.670;23.354;2023-08-31T14:55:14;5.23;;;3.00;;
20621;SDS011;10470;42.670;23.354;2023-08-31T14:57:45;5.77;;;2.60;;
20621;SDS011;10470;42.670;23.354;2023-08-31T15:00:16;8.10;;;3.70;;
20621;SDS011;10470;42.670;23.354;2023-08-31T15:02:47;6.07;;;3.03;;
20621;SDS011;10470;42.670;23.354;2023-08-31T15:05:18;6.67;;;3.40;;
20621;SDS011;10470;42.670;23.354;2023-08-31T15:07:48;5.37;;;3.03;;
20621;SDS011;10470;42.670;23.354;2023-08-31T15:10:19;6.57;;;3.40;;
20621;SDS011;10470;42.670;23.354;2023-08-31T15:12:50;4.37;;;3.10;;
20621;SDS011;10470;42.670;23.354;2023-08-31T15:15:21;5.80;;;2.90;;
20621;SDS011;10470;42.670;23.354;2023-08-31T15:17:52;4.63;;;2.70;;
20621;SDS011;10470;42.670;23.354;2023-08-31T15:20:23;8.17;;;2.93;;